Time;durP1;ratioP1;P1;durP2;ratioP2;P2;SDS_P1;SDS_P2;PMS_P1;PMS_P2;Temp;Humidity;BMP_temperature;BMP_pressure;BME280_temperature;BME280_humidity;BME280_pressure;Samples;Min_cycle;Max_cycle;Signal;HPM_P1;HPM_P2
2022/05/06 00:01:03;;;;;;;13.45;11.18;;;18.50;55.70;;;;;;4992103;28;88629;-62
2022/05/06 00:03:29;;;;;;;12.77;11.25;;;18.50;55.70;;;;;;4991855;28;89033;-62
2022/05/06 00:05:55;;;;;;;12.77;10.98;;;18.50;55.70;;;;;;4972762;28;91678;-62
2022/05/06 00:08:20;;;;;;;13.27;11.10;;;18.50;55.80;;;;;;4991286;28;89561;-62
2022/05/06 00:10:46;;;;;;;13.63;11.63;;;18.50;55.80;;;;;;4973326;28;90179;-63
2022/05/06 00:13:12;;;;;;;14.48;11.40;;;18.50;55.80;;;;;;4991304;28;88620;-62
2022/05/06 00:15:37;;;;;;;12.75;11.27;;;18.40;55.70;;;;;;4991962;28;89837;-63
2022/05/06 00:18:03;;;;;;;14.68;12.05;;;18.50;55.70;;;;;;4990776;28;89213;-62
2022/05/06 00:20:29;;;;;;;13.27;11.38;;;18.40;55.70;;;;;;4991779;28;88563;-63
2022/05/06 00:22:57;;;;;;;14.70;11.82;;;18.40;55.60;;;;;;4991254;28;88589;-63
2022/05/06 00:25:23;;;;;;;14.63;12.23;;;18.40;55.70;;;;;;4991320;28;89141;-62
2022/05/06 00:27:49;;;;;;;15.77;12.60;;;18.40;55.70;;;;;;4974031;28;89420;-62
2022/05/06 00:30:14;;;;;;;13.73;11.65;;;18.40;55.70;;;;;;4992014;28;88939;-62
2022/05/06 00:32:40;;;;;;;12.88;11.48;;;18.40;55.70;;;;;;4991671;28;89333;-63
2022/05/06 00:35:06;;;;;;;15.07;12.63;;;18.40;55.70;;;;;;4991452;28;89143;-63
2022/05/06 00:37:31;;;;;;;14.45;11.82;;;18.40;55.70;;;;;;4990906;28;89011;-63
2022/05/06 00:39:57;;;;;;;14.60;12.02;;;18.40;55.70;;;;;;4972884;28;88550;-63
2022/05/06 00:42:23;;;;;;;16.10;12.68;;;18.40;55.70;;;;;;4991391;28;88766;-63
2022/05/06 00:44:48;;;;;;;16.02;12.50;;;18.40;55.70;;;;;;4991307;28;88725;-63
2022/05/06 00:47:17;;;;;;;15.80;12.70;;;18.40;55.70;;;;;;4991341;28;88837;-63
2022/05/06 00:49:42;;;;;;;15.75;12.45;;;18.40;55.70;;;;;;4991026;28;89077;-63
2022/05/06 00:52:09;;;;;;;16.10;12.93;;;18.40;55.70;;;;;;4991072;28;89020;-63
2022/05/06 00:54:37;;;;;;;16.52;13.38;;;18.40;55.70;;;;;;4991206;28;89183;-63
2022/05/06 00:57:04;;;;;;;16.45;13.30;;;18.40;55.70;;;;;;4990867;28;89586;-62
2022/05/06 00:59:30;;;;;;;15.43;12.63;;;18.40;55.70;;;;;;4990637;28;88629;-63
2022/05/06 01:01:57;;;;;;;16.13;12.77;;;18.40;55.70;;;;;;4990752;28;91588;-62
2022/05/06 01:04:23;;;;;;;16.92;12.95;;;18.40;55.70;;;;;;4990682;28;89234;-63
2022/05/06 01:06:49;;;;;;;16.40;12.73;;;18.40;55.70;;;;;;4991018;28;88992;-63
2022/05/06 01:09:16;;;;;;;17.63;13.65;;;18.40;55.70;;;;;;4973230;28;88957;-64
2022/05/06 01:11:42;;;;;;;16.23;13.10;;;18.40;55.70;;;;;;4993948;28;88957;-64
2022/05/06 01:14:07;;;;;;;16.88;13.25;;;18.40;55.80;;;;;;4994257;28;89595;-63
2022/05/06 01:16:34;;;;;;;19.02;13.77;;;18.40;55.70;;;;;;4994605;28;88791;-63
2022/05/06 01:19:01;;;;;;;18.10;13.50;;;18.40;55.70;;;;;;4994047;28;88456;-63
2022/05/06 01:21:32;;;;;;;17.25;13.82;;;18.40;55.70;;;;;;4993550;28;89692;-63
2022/05/06 01:23:58;;;;;;;15.82;13.23;;;18.40;55.70;;;;;;4992080;28;89402;-63
2022/05/06 01:27:03;;;;;;;17.55;14.25;;;18.40;55.80;;;;;;4993980;28;91809;-63
2022/05/06 01:29:31;;;;;;;17.42;13.98;;;18.40;55.70;;;;;;4975403;28;90420;-63
2022/05/06 01:31:57;;;;;;;17.15;13.52;;;18.40;55.80;;;;;;4994270;28;88830;-62
2022/05/06 01:34:27;;;;;;;17.52;14.05;;;18.30;55.80;;;;;;4993919;28;90437;-63
2022/05/06 01:36:55;;;;;;;18.05;13.65;;;18.30;55.70;;;;;;4993945;28;88864;-63
2022/05/06 01:39:28;;;;;;;18.65;14.90;;;18.30;55.70;;;;;;4975977;28;90995;-64
2022/05/06 01:41:55;;;;;;;;;;;18.40;55.70;;;;;;4993334;28;88636;-63
2022/05/06 01:44:24;;;;;;;18.67;15.13;;;18.30;55.70;;;;;;4977339;28;89052;-62
2022/05/06 01:46:53;;;;;;;17.63;14.35;;;18.30;55.90;;;;;;4994073;28;88798;-63
2022/05/06 01:49:19;;;;;;;18.00;14.35;;;18.30;55.80;;;;;;4993451;28;89133;-62
2022/05/06 01:51:47;;;;;;;18.92;14.35;;;18.30;55.80;;;;;;4993869;28;88735;-63
2022/05/06 01:54:13;;;;;;;18.52;14.23;;;18.30;55.80;;;;;;4993752;28;88973;-63
2022/05/06 01:56:40;;;;;;;18.60;14.63;;;18.30;55.70;;;;;;4993540;28;89163;-63
2022/05/06 01:59:05;;;;;;;17.90;13.88;;;18.30;55.70;;;;;;4993052;28;89227;-63
2022/05/06 02:01:33;;;;;;;18.05;14.27;;;18.30;55.80;;;;;;4974599;28;100722;-63
2022/05/06 02:06:43;;;;;;;17.33;14.27;;;18.30;55.80;;;;;;4994367;28;88491;-62
2022/05/06 02:09:09;;;;;;;19.08;14.32;;;18.30;55.90;;;;;;4993882;28;88889;-63
2022/05/06 02:11:34;;;;;;;19.55;14.95;;;18.30;55.80;;;;;;4993284;28;89343;-62
2022/05/06 02:14:00;;;;;;;19.30;15.05;;;18.30;55.80;;;;;;4993484;28;89031;-63
2022/05/06 02:16:25;;;;;;;17.33;14.15;;;18.30;55.80;;;;;;4993151;28;89786;-63
2022/05/06 02:18:51;;;;;;;20.30;15.25;;;18.30;55.70;;;;;;4993329;28;88798;-63
2022/05/06 02:21:17;;;;;;;18.23;14.55;;;18.30;55.80;;;;;;4974096;28;89828;-63
2022/05/06 02:23:43;;;;;;;17.95;14.55;;;18.30;55.80;;;;;;4975274;28;90175;-63
2022/05/06 02:26:08;;;;;;;19.52;15.25;;;18.30;55.80;;;;;;4993931;28;89168;-62
2022/05/06 02:28:34;;;;;;;19.40;14.98;;;18.30;55.80;;;;;;4993774;28;88514;-63
2022/05/06 02:33:44;;;;;;;19.10;14.48;;;18.30;55.80;;;;;;4993444;28;88930;-63
2022/05/06 02:36:11;;;;;;;20.15;15.02;;;18.30;55.90;;;;;;4991933;28;90259;-63
2022/05/06 02:38:37;;;;;;;19.75;14.93;;;18.30;55.80;;;;;;4992888;28;88643;-63
2022/05/06 02:41:02;;;;;;;20.15;15.43;;;18.30;55.90;;;;;;4995889;28;88886;-63
2022/05/06 02:43:28;;;;;;;20.38;15.57;;;18.30;55.90;;;;;;4994330;28;89138;-63
2022/05/06 02:45:53;;;;;;;20.85;15.82;;;18.30;55.90;;;;;;4975267;28;91530;-62
2022/05/06 02:48:19;;;;;;;19.80;15.65;;;18.30;55.90;;;;;;4993608;28;88468;-63
2022/05/06 02:50:45;;;;;;;20.48;15.73;;;18.20;55.80;;;;;;4993440;28;88818;-63
2022/05/06 02:53:10;;;;;;;20.75;16.38;;;18.30;56.00;;;;;;4993121;28;89099;-62
2022/05/06 02:55:36;;;;;;;21.92;16.52;;;18.30;55.90;;;;;;4992665;28;88679;-62
2022/05/06 02:58:03;;;;;;;22.05;16.40;;;18.30;55.90;;;;;;4991787;28;88597;-63
2022/05/06 03:00:29;;;;;;;21.20;16.08;;;18.30;56.00;;;;;;4990365;28;92056;-63
2022/05/06 03:02:56;;;;;;;21.48;16.10;;;18.20;55.90;;;;;;4974665;28;90200;-63
2022/05/06 03:05:22;;;;;;;19.83;15.52;;;18.30;55.90;;;;;;4974711;28;88914;-62
2022/05/06 03:07:48;;;;;;;22.17;16.55;;;18.20;56.00;;;;;;4992730;28;89074;-63
2022/05/06 03:10:13;;;;;;;19.85;15.70;;;18.20;56.00;;;;;;4993235;28;89182;-63
2022/05/06 03:12:42;;;;;;;21.52;16.48;;;18.20;55.90;;;;;;4992526;28;89376;-63
2022/05/06 03:15:09;;;;;;;22.02;16.65;;;18.20;56.00;;;;;;4992803;28;88636;-63
2022/05/06 05:06:07;;;;;;;15.32;11.10;;;18.10;57.60;;;;;;4987069;28;89132;-62
2022/05/06 05:08:33;;;;;;;16.10;12.82;;;18.10;57.60;;;;;;4991658;28;89035;-63
2022/05/06 05:11:02;;;;;;;13.88;11.63;;;18.10;57.80;;;;;;4991104;28;90847;-63
2022/05/06 05:13:31;;;;;;;13.07;11.50;;;18.10;57.80;;;;;;4991135;28;89006;-63
2022/05/06 05:15:56;;;;;;;12.98;11.50;;;18.20;57.70;;;;;;4991004;28;89536;-62
2022/05/06 05:18:22;;;;;;;14.68;11.65;;;18.20;57.60;;;;;;4990716;28;89179;-63
2022/05/06 05:20:48;;;;;;;12.60;11.25;;;18.20;57.70;;;;;;4990772;28;88683;-63
2022/05/06 05:23:13;;;;;;;13.20;11.13;;;18.20;57.70;;;;;;4990927;28;89367;-63
2022/05/06 05:25:39;;;;;;;14.05;11.23;;;18.20;57.60;;;;;;4990865;28;93173;-63
2022/05/06 05:28:04;;;;;;;12.05;10.75;;;18.20;57.80;;;;;;4990430;28;89211;-63
2022/05/06 05:30:30;;;;;;;14.82;10.82;;;18.20;58.00;;;;;;4990963;28;88830;-63
2022/05/06 05:32:57;;;;;;;12.20;10.30;;;18.20;57.90;;;;;;4990111;28;88471;-64
2022/05/06 05:35:23;;;;;;;13.40;10.23;;;18.20;57.90;;;;;;4990353;28;89711;-64
2022/05/06 05:37:48;;;;;;;11.95;10.45;;;18.20;58.00;;;;;;4990040;28;95430;-63
2022/05/06 05:40:14;;;;;;;12.55;10.30;;;18.30;59.10;;;;;;4990370;28;95111;-63
2022/05/06 05:42:39;;;;;;;11.50;10.00;;;18.30;58.10;;;;;;4972610;28;90601;-63
2022/05/06 05:50:35;;;;;;;10.60;9.50;;;18.30;58.00;;;;;;4991578;28;89271;-63
2022/05/06 05:53:02;;;;;;;11.27;9.77;;;18.30;58.20;;;;;;4991582;28;88930;-64
2022/05/06 05:55:27;;;;;;;12.77;9.65;;;18.30;58.20;;;;;;4991464;28;88618;-63
2022/05/06 05:57:53;;;;;;;12.02;9.30;;;18.30;58.30;;;;;;4993654;28;88424;-63
2022/05/06 06:00:18;;;;;;;10.85;9.10;;;18.30;58.40;;;;;;4994422;28;88482;-63
2022/05/06 06:02:44;;;;;;;11.18;9.45;;;18.30;58.50;;;;;;4994222;28;88615;-62
2022/05/06 06:05:10;;;;;;;10.88;8.93;;;18.40;58.60;;;;;;4994628;28;89897;-63
2022/05/06 06:07:35;;;;;;;9.80;8.80;;;18.40;58.60;;;;;;4995005;28;88999;-63
2022/05/06 06:10:01;;;;;;;10.63;9.07;;;18.40;58.60;;;;;;4995415;28;88095;-63
2022/05/06 06:12:26;;;;;;;9.73;8.68;;;18.40;58.50;;;;;;4994967;28;92127;-63
2022/05/06 06:14:55;;;;;;;10.05;8.43;;;18.40;58.60;;;;;;4994227;28;88421;-63
2022/05/06 06:17:21;;;;;;;9.73;8.73;;;18.50;58.60;;;;;;4994136;28;89691;-62
2022/05/06 06:19:47;;;;;;;12.25;8.85;;;18.50;58.50;;;;;;4994745;28;88155;-62
2022/05/06 06:22:13;;;;;;;11.10;8.82;;;18.60;58.50;;;;;;4976653;28;89485;-63
2022/05/06 06:24:38;;;;;;;9.43;8.18;;;18.60;58.60;;;;;;4994427;28;88682;-62
2022/05/06 06:27:04;;;;;;;9.50;8.27;;;18.60;58.50;;;;;;4976463;28;88646;-63
2022/05/06 06:29:31;;;;;;;9.30;7.95;;;18.70;58.60;;;;;;4994349;28;88844;-63
2022/05/06 06:31:56;;;;;;;8.30;7.50;;;18.70;58.50;;;;;;4994999;28;88056;-63
2022/05/06 06:34:22;;;;;;;7.72;7.03;;;18.70;58.60;;;;;;4995096;28;88673;-62
2022/05/06 06:36:48;;;;;;;9.45;7.05;;;18.80;58.70;;;;;;4994586;28;87968;-63
2022/05/06 06:39:13;;;;;;;10.88;7.13;;;18.80;58.70;;;;;;4995309;28;88552;-62
2022/05/06 06:41:39;;;;;;;7.82;6.72;;;18.90;58.80;;;;;;4994480;28;88089;-63
2022/05/06 06:44:04;;;;;;;8.52;6.47;;;19.00;58.70;;;;;;4994112;28;88795;-63
2022/05/06 06:46:32;;;;;;;8.10;6.28;;;19.00;58.40;;;;;;4994468;28;88293;-62
2022/05/06 06:48:57;;;;;;;6.90;6.20;;;19.10;58.50;;;;;;4977145;28;89502;-62
2022/05/06 06:51:23;;;;;;;6.30;5.63;;;19.10;58.20;;;;;;4995069;28;88652;-62
2022/05/06 06:53:50;;;;;;;6.38;5.78;;;19.20;58.30;;;;;;4993802;28;89371;-63
2022/05/06 06:56:15;;;;;;;6.75;6.05;;;19.20;58.30;;;;;;4994170;28;89014;-63
2022/05/06 06:58:41;;;;;;;8.23;5.63;;;19.30;58.10;;;;;;4993579;28;88465;-61
2022/05/06 07:01:06;;;;;;;6.20;5.60;;;19.40;57.80;;;;;;4993748;28;88484;-63
2022/05/06 07:03:32;;;;;;;8.32;5.75;;;19.40;57.60;;;;;;4975421;28;90107;-63
2022/05/06 07:14:11;;;;;;;5.68;5.05;;;19.40;57.60;;;;;;4993619;28;88259;-63
2022/05/06 07:16:39;;;;;;;6.20;5.05;;;19.40;57.70;;;;;;4993820;28;88049;-62
2022/05/06 07:19:07;;;;;;;7.00;5.25;;;19.40;57.80;;;;;;4993664;28;89240;-63
2022/05/06 07:21:33;;;;;;;19.88;5.45;;;19.40;57.90;;;;;;4993907;28;88109;-63
2022/05/06 07:23:59;;;;;;;11.77;5.63;;;19.40;57.60;;;;;;4992978;28;88711;-62
2022/05/06 07:26:25;;;;;;;7.88;5.50;;;19.40;57.90;;;;;;4993285;28;88113;-63
2022/05/06 07:28:51;;;;;;;24.02;6.30;;;19.40;57.80;;;;;;4993150;28;88413;-63
2022/05/06 07:31:17;;;;;;;9.48;5.43;;;19.40;57.70;;;;;;4993744;28;88548;-64
2022/05/06 07:33:42;;;;;;;18.08;6.18;;;19.40;57.60;;;;;;4993344;28;89328;-63
2022/05/06 07:36:08;;;;;;;8.45;5.90;;;19.40;57.80;;;;;;4994069;28;88191;-63
2022/05/06 07:38:34;;;;;;;7.35;5.93;;;19.40;58.00;;;;;;4974886;28;88254;-63
2022/05/06 07:41:01;;;;;;;8.00;5.32;;;19.30;57.60;;;;;;4992068;28;88941;-64
2022/05/06 07:43:27;;;;;;;6.18;5.50;;;19.30;57.50;;;;;;4991462;28;89328;-64
2022/05/06 07:45:52;;;;;;;7.57;5.47;;;19.30;57.50;;;;;;4993095;28;89652;-64
2022/05/06 07:48:18;;;;;;;12.95;6.60;;;19.20;57.50;;;;;;4992379;28;88634;-64
2022/05/06 07:50:44;;;;;;;19.42;7.97;;;19.20;57.50;;;;;;4992648;28;88868;-64
2022/05/06 07:53:15;;;;;;;19.95;8.18;;;19.20;57.60;;;;;;4992659;28;88545;-64
2022/05/06 07:55:41;;;;;;;16.17;9.15;;;19.20;57.70;;;;;;4992591;28;88338;-60
2022/05/06 07:58:07;;;;;;;18.80;10.40;;;19.20;57.90;;;;;;4992645;28;88640;-62
2022/05/06 08:00:32;;;;;;;16.90;9.55;;;19.10;58.50;;;;;;4992416;28;88868;-63
2022/05/06 08:05:46;;;;;;;17.55;9.73;;;19.20;59.00;;;;;;4992677;28;88105;-64
2022/05/06 08:08:11;;;;;;;17.85;9.50;;;19.20;59.10;;;;;;4992354;28;88821;-64
2022/05/06 08:10:37;;;;;;;19.90;10.00;;;19.10;59.10;;;;;;4992233;28;88278;-64
2022/05/06 08:13:02;;;;;;;16.48;9.75;;;19.10;59.30;;;;;;4991866;28;88827;-65
2022/05/06 08:15:28;;;;;;;16.35;10.20;;;19.20;59.40;;;;;;4974160;28;88677;-65
2022/05/06 08:17:54;;;;;;;14.38;10.00;;;19.10;59.30;;;;;;4992077;28;88714;-65
2022/05/06 08:20:19;;;;;;;16.75;9.70;;;19.10;59.60;;;;;;4991302;28;88666;-65
2022/05/06 08:22:45;;;;;;;20.00;9.95;;;19.10;60.00;;;;;;4974175;28;91004;-65
2022/05/06 08:25:11;;;;;;;21.83;10.02;;;19.20;60.20;;;;;;4993004;28;89403;-65
2022/05/06 08:27:42;;;;;;;24.05;9.88;;;19.20;60.20;;;;;;4973269;28;89074;-66
2022/05/06 08:30:10;;;;;;;20.85;9.77;;;19.20;60.20;;;;;;4974719;28;91040;-65
2022/05/06 08:32:35;;;;;;;19.92;9.40;;;19.20;60.00;;;;;;4992656;28;89325;-65
2022/05/06 08:35:04;;;;;;;17.23;10.02;;;19.20;59.90;;;;;;4992295;28;89119;-65
2022/05/06 08:37:38;;;;;;;18.55;10.27;;;19.20;60.00;;;;;;4991645;28;88492;-65
2022/05/06 08:40:04;;;;;;;15.68;10.00;;;19.10;60.00;;;;;;4991825;28;88413;-64
2022/05/06 08:42:31;;;;;;;17.35;9.48;;;19.10;60.10;;;;;;4991450;28;88478;-64
2022/05/06 08:53:11;;;;;;;19.40;10.30;;;19.10;60.20;;;;;;4977116;28;88335;-64
2022/05/06 08:55:37;;;;;;;17.77;10.20;;;19.00;60.20;;;;;;4991122;28;89137;-65
2022/05/06 08:58:05;;;;;;;16.75;10.23;;;19.10;60.30;;;;;;4991499;28;89134;-65
2022/05/06 09:00:31;;;;;;;15.75;9.93;;;19.10;60.30;;;;;;4992048;28;88523;-65
2022/05/06 09:02:56;;;;;;;17.45;10.60;;;19.00;60.20;;;;;;4992690;28;88436;-65
2022/05/06 09:05:22;;;;;;;13.43;9.98;;;19.00;60.30;;;;;;4991036;28;89086;-65
2022/05/06 09:08:04;;;;;;;17.50;9.93;;;19.00;61.30;;;;;;4991643;28;88595;-65
2022/05/06 09:10:30;;;;;;;17.58;11.32;;;19.00;60.20;;;;;;4992142;28;88122;-65
2022/05/06 09:12:57;;;;;;;22.73;14.18;;;19.00;60.20;;;;;;4991234;28;88632;-65
2022/05/06 09:18:09;;;;;;;38.65;20.30;;;19.00;59.70;;;;;;4991430;28;88987;-65
2022/05/06 09:20:36;;;;;;;33.65;20.80;;;18.90;59.40;;;;;;4991586;28;88566;-65
2022/05/06 09:23:24;;;;;;;35.42;21.20;;;19.00;59.60;;;;;;4991398;28;90099;-64
2022/05/06 09:25:53;;;;;;;32.42;21.40;;;18.90;59.60;;;;;;4991294;28;89268;-65
2022/05/06 09:28:26;;;;;;;31.08;20.58;;;18.90;59.60;;;;;;4990144;28;88807;-64
2022/05/06 09:31:24;;;;;;;30.38;19.98;;;18.90;59.70;;;;;;4972629;28;88635;-64
2022/05/06 09:33:50;;;;;;;31.00;20.60;;;18.90;59.70;;;;;;4982393;28;88774;-65
2022/05/06 09:36:29;;;;;;;30.30;20.23;;;18.90;59.70;;;;;;4994382;28;89397;-65
2022/05/06 09:39:10;;;;;;;29.38;20.17;;;18.90;59.60;;;;;;4994099;28;89155;-65
2022/05/06 09:41:40;;;;;;;26.13;19.05;;;18.90;59.30;;;;;;4994743;28;88673;-65
2022/05/06 09:44:07;;;;;;;30.65;18.65;;;18.90;59.10;;;;;;4994750;28;88789;-70
2022/05/06 09:46:34;;;;;;;29.83;19.40;;;18.90;58.90;;;;;;5009913;28;91906;-70
2022/05/06 09:49:01;;;;;;;27.50;17.67;;;18.90;58.60;;;;;;4994841;28;89285;-70
2022/05/06 09:51:33;;;;;;;25.00;17.98;;;18.90;58.50;;;;;;4994186;28;88946;-71
2022/05/06 09:54:00;;;;;;;27.57;18.93;;;18.90;58.30;;;;;;5009582;28;90829;-70
2022/05/06 09:56:27;;;;;;;26.65;18.98;;;18.90;58.30;;;;;;4994302;28;89396;-70
2022/05/06 09:58:54;;;;;;;24.05;17.65;;;18.90;58.30;;;;;;4994059;28;88899;-69
2022/05/06 10:01:22;;;;;;;20.20;17.05;;;18.90;58.20;;;;;;4994569;28;88512;-67
2022/05/06 10:03:50;;;;;;;23.85;17.60;;;18.80;58.00;;;;;;4993117;28;88773;-68
2022/05/06 10:06:16;;;;;;;21.02;16.38;;;18.90;58.10;;;;;;4993935;28;90539;-69
2022/05/06 10:08:47;;;;;;;19.30;15.57;;;18.80;58.00;;;;;;4993966;28;89175;-69
2022/05/06 10:11:14;;;;;;;18.27;14.43;;;18.90;57.90;;;;;;4994590;28;89043;-71
2022/05/06 10:13:43;;;;;;;21.20;15.13;;;18.90;57.70;;;;;;4994397;28;89209;-68
2022/05/06 10:16:10;;;;;;;19.73;14.40;;;18.90;57.60;;;;;;4994386;28;90199;-69
2022/05/06 10:18:43;;;;;;;16.27;14.13;;;18.90;57.60;;;;;;4975888;28;88960;-69
2022/05/06 10:21:13;;;;;;;19.05;13.75;;;18.90;57.30;;;;;;4994207;28;88653;-69
2022/05/06 10:23:47;;;;;;;18.25;14.02;;;18.90;57.30;;;;;;5008543;28;89738;-69
2022/05/06 10:26:41;;;;;;;17.23;13.93;;;18.90;57.10;;;;;;4993978;28;89103;-69
2022/05/06 10:35:05;;;;;;;15.90;12.52;;;18.90;57.20;;;;;;4994850;28;88452;-72
2022/05/06 10:37:45;;;;;;;18.53;11.27;;;18.90;57.20;;;;;;4993912;28;89110;-70
2022/05/06 10:40:22;;;;;;;23.02;12.95;;;18.90;57.60;;;;;;4993991;28;88789;-70
2022/05/06 10:42:48;;;;;;;20.83;13.68;;;19.00;58.30;;;;;;4992870;28;88607;-70
2022/05/06 10:45:32;;;;;;;19.90;13.98;;;19.00;58.60;;;;;;4994646;28;88993;-70
2022/05/06 10:47:58;;;;;;;18.40;12.50;;;19.00;58.90;;;;;;4993825;28;89258;-71
2022/05/06 10:50:25;;;;;;;19.67;13.50;;;19.00;58.80;;;;;;4993905;28;88679;-71
2022/05/06 10:52:52;;;;;;;30.00;12.45;;;19.10;58.90;;;;;;4992980;28;88494;-70
2022/05/06 10:55:19;;;;;;;15.88;12.68;;;19.10;58.90;;;;;;4993715;28;89252;-70
2022/05/06 10:57:55;;;;;;;16.25;12.60;;;19.10;58.80;;;;;;4974682;28;89487;-71
2022/05/06 11:00:22;;;;;;;14.57;12.02;;;19.20;58.80;;;;;;4992987;28;88934;-71
2022/05/06 11:02:48;;;;;;;14.38;11.00;;;19.20;58.80;;;;;;5008234;28;89164;-72
2022/05/06 11:05:16;;;;;;;16.75;11.88;;;19.20;58.50;;;;;;4992711;28;89218;-73
2022/05/06 11:07:44;;;;;;;14.95;11.65;;;19.20;58.00;;;;;;4993239;28;88828;-72
2022/05/06 11:10:21;;;;;;;12.82;10.68;;;19.20;57.30;;;;;;4993375;28;88939;-71
2022/05/06 11:12:47;;;;;;;13.23;10.57;;;19.20;57.00;;;;;;4993096;28;88982;-70
2022/05/06 11:15:42;;;;;;;12.65;10.38;;;19.20;57.00;;;;;;4993571;28;88780;-72
2022/05/06 11:18:08;;;;;;;12.57;9.68;;;19.30;56.80;;;;;;4961144;28;92078;-72
2022/05/06 11:20:36;;;;;;;10.27;8.98;;;19.30;56.80;;;;;;5008673;28;89856;-73
2022/05/06 11:23:15;;;;;;;10.55;9.32;;;19.30;56.40;;;;;;4994017;28;88085;-71
2022/05/06 11:25:48;;;;;;;10.10;9.10;;;19.30;56.10;;;;;;4993516;28;88107;-70
2022/05/06 11:28:20;;;;;;;12.52;9.68;;;19.30;55.70;;;;;;4993710;28;88234;-72
2022/05/06 11:30:48;;;;;;;10.47;9.47;;;19.40;55.60;;;;;;4993048;28;88790;-70
2022/05/06 11:33:24;;;;;;;11.63;8.68;;;19.40;55.60;;;;;;5008229;28;89431;-71
2022/05/06 11:35:50;;;;;;;10.00;8.38;;;19.40;54.60;;;;;;4993543;28;88530;-71
2022/05/06 11:38:38;;;;;;;11.57;8.68;;;19.40;54.60;;;;;;4993491;28;88345;-70
2022/05/06 11:41:15;;;;;;;10.57;8.52;;;19.40;54.80;;;;;;4994270;28;88176;-70
2022/05/06 11:43:42;;;;;;;10.90;8.40;;;19.40;54.60;;;;;;4993862;28;88360;-69
2022/05/06 11:49:03;;;;;;;10.88;8.60;;;19.40;54.50;;;;;;4993539;28;88143;-69
2022/05/06 11:51:43;;;;;;;10.25;7.65;;;19.40;54.70;;;;;;5008474;28;88128;-69
2022/05/06 11:54:09;;;;;;;13.13;7.47;;;19.30;54.80;;;;;;4975876;28;88234;-69
2022/05/06 11:56:36;;;;;;;10.48;6.57;;;19.30;54.50;;;;;;4991113;28;92049;-70
2022/05/06 11:59:03;;;;;;;15.27;7.00;;;19.30;54.20;;;;;;4992112;28;89225;-70
2022/05/06 12:01:34;;;;;;;8.63;7.07;;;19.40;54.20;;;;;;4991460;28;89088;-70
2022/05/06 12:04:10;;;;;;;8.27;6.93;;;19.40;54.20;;;;;;4992438;28;88165;-70
2022/05/06 12:06:38;;;;;;;10.98;8.15;;;19.40;54.00;;;;;;5007738;28;93566;-70
2022/05/06 12:09:16;;;;;;;17.90;8.18;;;19.40;53.80;;;;;;4993644;28;88588;-70
2022/05/06 12:11:43;;;;;;;12.23;8.00;;;19.40;53.60;;;;;;4993429;28;88752;-71
2022/05/06 12:14:19;;;;;;;11.63;7.88;;;19.40;53.70;;;;;;4994070;28;88179;-70
2022/05/06 12:16:58;;;;;;;17.52;7.45;;;19.40;53.60;;;;;;4992499;28;88771;-70
2022/05/06 12:19:37;;;;;;;10.07;7.25;;;19.40;53.70;;;;;;4993357;28;88618;-71
2022/05/06 12:22:23;;;;;;;28.60;7.70;;;19.40;53.60;;;;;;4992764;28;89320;-70
2022/05/06 12:24:58;;;;;;;12.20;6.25;;;19.50;53.60;;;;;;4993029;28;89298;-70
2022/05/06 12:27:26;;;;;;;9.55;7.03;;;19.40;53.60;;;;;;4992819;28;88895;-71
2022/05/06 12:29:53;;;;;;;7.63;6.30;;;19.40;53.30;;;;;;4992375;28;88772;-70
2022/05/06 12:32:19;;;;;;;10.32;6.40;;;19.40;53.20;;;;;;4993045;28;88448;-70
2022/05/06 12:34:44;;;;;;;10.63;6.63;;;19.40;53.00;;;;;;5007948;28;90184;-69
2022/05/06 12:37:12;;;;;;;7.97;5.97;;;19.30;52.80;;;;;;4974564;28;88842;-69
2022/05/06 12:39:48;;;;;;;8.70;6.63;;;19.30;52.70;;;;;;4993410;28;89085;-69
2022/05/06 12:42:15;;;;;;;8.20;5.72;;;19.30;52.60;;;;;;4992701;28;88744;-69
2022/05/06 12:44:42;;;;;;;8.00;5.80;;;19.30;52.70;;;;;;4973586;28;88289;-69
2022/05/06 12:50:11;;;;;;;10.57;6.40;;;19.30;52.80;;;;;;4991453;28;89714;-69
2022/05/06 12:52:37;;;;;;;7.30;5.50;;;19.30;53.20;;;;;;4992638;28;88162;-68
2022/05/06 12:55:06;;;;;;;7.53;5.70;;;19.30;53.30;;;;;;4991815;28;88543;-70
2022/05/06 12:57:32;;;;;;;6.95;5.28;;;19.30;53.50;;;;;;4992391;28;89243;-69
2022/05/06 12:59:58;;;;;;;8.20;5.35;;;19.30;53.70;;;;;;4992636;28;88639;-70
2022/05/06 13:02:23;;;;;;;7.57;6.03;;;19.30;53.70;;;;;;5007733;28;89156;-70
2022/05/06 13:04:49;;;;;;;9.10;7.20;;;19.30;53.50;;;;;;4992363;28;88729;-71
2022/05/06 13:07:15;;;;;;;9.55;7.90;;;19.30;53.40;;;;;;5010209;28;88910;-70
2022/05/06 13:09:41;;;;;;;9.68;7.95;;;19.30;53.30;;;;;;4995441;28;88391;-72
2022/05/06 13:12:09;;;;;;;11.45;9.60;;;19.30;53.30;;;;;;4995519;28;88735;-70
2022/05/06 13:14:35;;;;;;;11.75;9.48;;;19.30;53.10;;;;;;5010977;28;89411;-70
2022/05/06 13:17:00;;;;;;;16.05;9.65;;;19.30;53.10;;;;;;4995699;28;88620;-71
2022/05/06 13:19:29;;;;;;;12.88;9.65;;;19.30;53.00;;;;;;4995797;28;88516;-70
2022/05/06 13:21:55;;;;;;;11.25;9.27;;;19.30;53.10;;;;;;4995632;28;88749;-70
2022/05/06 13:24:22;;;;;;;10.73;9.63;;;19.30;52.90;;;;;;4995635;28;88642;-65
2022/05/06 13:26:47;;;;;;;13.57;9.90;;;19.30;52.80;;;;;;4993691;28;88857;-65
2022/05/06 13:29:13;;;;;;;12.43;9.52;;;19.30;52.80;;;;;;4995891;28;87667;-65
2022/05/06 13:31:39;;;;;;;15.23;9.40;;;19.30;52.80;;;;;;4995407;28;88219;-64
2022/05/06 13:34:04;;;;;;;11.05;9.10;;;19.30;52.90;;;;;;4995595;28;88104;-65
2022/05/06 13:36:31;;;;;;;19.10;9.07;;;19.30;52.90;;;;;;4999106;28;89393;-63
2022/05/06 13:38:58;;;;;;;12.32;9.05;;;19.30;52.90;;;;;;5006471;28;88665;-64
2022/05/06 13:41:23;;;;;;;11.40;8.50;;;19.30;52.80;;;;;;4996718;28;88595;-63
2022/05/06 13:43:49;;;;;;;10.25;8.75;;;19.40;52.70;;;;;;4994572;28;88153;-64
2022/05/06 13:46:15;;;;;;;14.98;8.65;;;19.30;52.70;;;;;;4994930;28;88563;-64
2022/05/06 13:48:41;;;;;;;11.00;8.77;;;19.30;52.60;;;;;;4995342;28;88388;-63
2022/05/06 13:51:06;;;;;;;12.98;8.52;;;19.30;52.50;;;;;;4977182;28;89333;-64
2022/05/06 13:53:33;;;;;;;11.57;8.60;;;19.30;52.50;;;;;;4995016;28;88701;-64
2022/05/06 14:01:28;;;;;;;10.95;7.82;;;19.30;52.20;;;;;;4995019;28;89009;-64
2022/05/06 14:03:53;;;;;;;11.90;8.10;;;19.30;52.30;;;;;;4995046;28;88149;-64
2022/05/06 14:06:19;;;;;;;11.27;7.90;;;19.30;52.10;;;;;;4993733;28;88614;-64
2022/05/06 14:08:45;;;;;;;12.20;8.73;;;19.30;52.00;;;;;;4993516;28;90269;-64
2022/05/06 14:11:10;;;;;;;11.85;8.70;;;19.30;52.00;;;;;;4976217;28;88136;-64
2022/05/06 14:13:36;;;;;;;10.63;8.88;;;19.20;51.90;;;;;;4994403;28;88373;-63
2022/05/06 14:16:02;;;;;;;12.10;9.60;;;19.30;52.00;;;;;;4994240;28;88654;-65
2022/05/06 14:18:28;;;;;;;11.00;9.45;;;19.30;52.10;;;;;;4994003;28;88405;-64
2022/05/06 14:20:54;;;;;;;11.65;10.30;;;19.30;52.10;;;;;;4994150;28;88782;-64
2022/05/06 14:23:19;;;;;;;10.77;9.38;;;19.30;52.00;;;;;;4975574;28;90899;-65
2022/05/06 14:25:45;;;;;;;14.60;10.40;;;19.20;52.00;;;;;;4993751;28;89533;-64
2022/05/06 14:28:12;;;;;;;11.60;10.15;;;19.20;52.10;;;;;;4993214;28;89505;-64
2022/05/06 14:30:41;;;;;;;11.55;10.32;;;19.20;52.20;;;;;;4992229;28;88415;-64
2022/05/06 14:33:07;;;;;;;16.50;10.82;;;19.30;52.30;;;;;;4993807;28;88488;-64
2022/05/06 14:35:33;;;;;;;12.23;10.50;;;19.30;52.40;;;;;;4993547;28;88676;-64
2022/05/06 14:38:00;;;;;;;14.27;10.75;;;19.30;53.30;;;;;;4974396;28;89202;-64
2022/05/06 14:40:28;;;;;;;13.25;10.75;;;19.30;52.30;;;;;;4974964;28;89309;-65
2022/05/06 14:42:54;;;;;;;12.25;10.95;;;19.30;52.40;;;;;;4992512;28;89256;-64
2022/05/06 14:45:20;;;;;;;13.00;11.13;;;19.30;52.40;;;;;;4975215;28;88996;-64
2022/05/06 14:47:46;;;;;;;16.55;11.90;;;19.30;52.40;;;;;;4993298;28;88434;-64
2022/05/06 14:50:11;;;;;;;13.75;11.55;;;19.30;52.50;;;;;;4992873;28;89084;-64
2022/05/06 14:52:37;;;;;;;13.38;11.57;;;19.30;52.50;;;;;;4993570;28;89182;-63
2022/05/06 14:55:04;;;;;;;13.18;11.48;;;19.30;52.50;;;;;;4993452;28;88612;-64
2022/05/06 14:57:30;;;;;;;15.15;11.70;;;19.30;52.40;;;;;;4975553;28;89094;-63
2022/05/06 14:59:56;;;;;;;12.45;11.15;;;19.30;52.30;;;;;;4992677;28;90709;-63
2022/05/06 15:02:22;;;;;;;13.70;11.68;;;19.30;52.30;;;;;;4993439;28;89168;-63
2022/05/06 15:04:48;;;;;;;12.25;11.05;;;19.30;52.40;;;;;;4972289;28;96088;-63
2022/05/06 15:07:13;;;;;;;14.82;11.27;;;19.30;52.40;;;;;;4992156;28;92824;-64
2022/05/06 15:09:39;;;;;;;14.85;10.95;;;19.30;52.40;;;;;;4991691;28;92793;-63
2022/05/06 15:12:05;;;;;;;13.15;11.35;;;19.30;52.40;;;;;;4990671;28;92760;-63
2022/05/06 15:14:32;;;;;;;21.30;11.63;;;19.40;52.40;;;;;;4990195;28;95988;-64